Aérodrome :
LOGIN :

S'inscrire | Disclaimer

   EN    FR    IT 

 










Légende :    VFR   VFR Marginal   IFR   IFR Intensif   IFR Très Intensif
Visi : 
Plafond : 
>= 8 km
>= 3000ft
5 à 8 km
1000 à 3000 ft
1500m à 5 km
500 à 1000 ft
800 à 1500m
200 à 500 ft
< 800m
< 200 ft
Symboles :   Orages  Brouillard  Fortes neiges  Fortes précipitations  Vent > 20 kt
SIGMETs :   Divers  Orages  Givrage  Turbulence  Onde Orograph.  Cendres Volcan.







- Altitude de l'aérodrome : 141 ft
- Code IATA : SKS


EKSP - Srydstrup Vojens

DERNIER METAR :
  • 240420Z 21009KT CAVOK 09/07 Q1011 NOSIG

METARs EXPIRÉS :
  • 240350Z 21009KT CAVOK 09/06 Q1011 RMK FEW150
  • 240320Z 21008KT CAVOK 08/06 Q1011
  • 240250Z 21008KT CAVOK 07/06 Q1012 RMK FEW240
  • 240220Z 22006KT CAVOK 06/05 Q1012
  • 240150Z 21006KT CAVOK 07/06 Q1012

TAF TAF EKSP
Valide du 24 à 03h jusqu'au 25 à 03h UTC


240210Z 2403/2503 21008KT 9999 FEW025 SCT200
BECMG 2407/2409 26012G25KT
TEMPO 2409/2417 6000 -RA BKN012
BECMG 2416/2419 28010KT
Pas de NOTAMs connus pour ce terrain.



MET'MAP, la Météo Aéronautique d'un coup d'oeil ! - Copyright ORBIFLY Décembre 2007 - Disclaimer

ORBIFLY MET'MAP TEAM :

Programmation & Développement : Alexandra Zaïnal
Conception & Développement : Baudouin d'Aumeries
Co-Programmation & Développement : Marc-Olivier Méhu
Soutien technique & logistique : Manuel Goepfert

Contact : metmap@orbifly.com




SOURCES & CREDITS :

   NOAA